Time;durP1;ratioP1;P1;durP2;ratioP2;P2;SDS_P1;SDS_P2;PMS_P1;PMS_P2;Temp;Humidity;BMP_temperature;BMP_pressure;BME280_temperature;BME280_humidity;BME280_pressure;Samples;Min_cycle;Max_cycle;Signal;HPM_P1;HPM_P2
2022/12/21 00:01:14;;;;;;;116.17;50.93;;;-4.20;99.90;;;;;;4112737;28;20347;-64
2022/12/21 00:03:15;;;;;;;109.87;51.03;;;-4.20;99.90;;;;;;4112068;28;20347;-72
2022/12/21 00:05:16;;;;;;;124.93;55.55;;;-4.20;99.90;;;;;;4114318;28;20269;-64
2022/12/21 00:07:17;;;;;;;129.13;58.73;;;-4.10;99.90;;;;;;4112578;28;20415;-60
2022/12/21 00:09:19;;;;;;;136.23;57.17;;;-4.10;99.90;;;;;;4113831;28;20323;-72
2022/12/21 00:11:22;;;;;;;119.20;52.80;;;-4.10;99.90;;;;;;4111962;28;20328;-69
2022/12/21 00:13:23;;;;;;;114.77;51.90;;;-4.10;99.90;;;;;;4113962;28;20265;-71
2022/12/21 00:15:24;;;;;;;122.53;53.30;;;-4.20;99.90;;;;;;4112930;28;20272;-67
2022/12/21 00:17:25;;;;;;;115.57;51.90;;;-4.20;99.90;;;;;;4113814;28;20669;-63
2022/12/21 00:19:26;;;;;;;117.73;47.43;;;-4.20;99.90;;;;;;4112278;28;20304;-60
2022/12/21 00:21:29;;;;;;;123.60;52.73;;;-4.20;99.90;;;;;;4113353;28;20332;-70
2022/12/21 00:23:32;;;;;;;112.82;51.22;;;-4.20;99.90;;;;;;4112298;28;20256;-66
2022/12/21 00:25:34;;;;;;;123.43;55.63;;;-4.30;99.90;;;;;;4112929;28;20026;-61
2022/12/21 00:27:35;;;;;;;123.43;55.07;;;-4.30;99.90;;;;;;4113060;28;20315;-70
2022/12/21 00:29:36;;;;;;;119.80;52.77;;;-4.40;99.90;;;;;;4112902;28;20284;-69
2022/12/21 00:31:39;;;;;;;126.15;52.05;;;-4.60;99.90;;;;;;4113481;28;20260;-64
2022/12/21 00:33:41;;;;;;;124.87;52.37;;;-4.60;99.90;;;;;;4111783;28;20058;-64
2022/12/21 00:35:50;;;;;;;127.22;52.30;;;-4.70;99.90;;;;;;4112767;28;20343;-61
2022/12/21 00:37:51;;;;;;;114.78;49.83;;;-4.70;99.90;;;;;;4112495;28;20391;-60
2022/12/21 00:39:52;;;;;;;122.45;55.05;;;-4.70;99.90;;;;;;4112945;28;20055;-65
2022/12/21 00:41:53;;;;;;;120.25;50.20;;;-4.60;99.90;;;;;;4111400;28;20487;-59
2022/12/21 00:43:55;;;;;;;116.90;50.90;;;-4.60;99.90;;;;;;4113450;28;20090;-63
2022/12/21 00:45:57;;;;;;;118.03;53.20;;;-4.60;99.90;;;;;;4112595;28;20035;-61
2022/12/21 00:47:58;;;;;;;118.55;51.80;;;-4.60;99.90;;;;;;4113538;28;20076;-63
2022/12/21 00:50:00;;;;;;;129.40;53.20;;;-4.60;99.90;;;;;;4112342;28;20105;-63
2022/12/21 00:52:01;;;;;;;118.27;49.67;;;-4.50;99.90;;;;;;4112367;28;20039;-64
2022/12/21 00:54:03;;;;;;;114.88;48.42;;;-4.50;99.90;;;;;;4111439;28;20405;-64
2022/12/21 00:56:06;;;;;;;106.15;46.00;;;-4.50;99.90;;;;;;4111987;28;20046;-65
2022/12/21 00:58:07;;;;;;;107.77;47.87;;;-4.60;99.90;;;;;;4094931;29;20035;-62
2022/12/21 01:00:09;;;;;;;98.68;43.75;;;-4.50;99.90;;;;;;4112592;28;20277;-65
2022/12/21 01:02:10;;;;;;;96.72;41.58;;;-4.60;99.90;;;;;;4112459;28;20038;-66
2022/12/21 01:04:11;;;;;;;90.47;40.33;;;-4.60;99.90;;;;;;4111380;28;20832;-65
2022/12/21 01:06:18;;;;;;;84.93;38.70;;;-4.60;99.90;;;;;;4112904;28;20035;-61
2022/12/21 01:08:20;;;;;;;88.70;38.75;;;-4.60;99.90;;;;;;4111312;28;20043;-61
2022/12/21 01:10:21;;;;;;;88.80;37.88;;;-4.60;99.90;;;;;;4113238;28;20356;-65
2022/12/21 01:12:22;;;;;;;89.40;39.17;;;-4.60;99.90;;;;;;4111819;28;20034;-61
2022/12/21 01:14:23;;;;;;;99.20;39.43;;;-4.60;99.90;;;;;;4113209;28;21293;-67
2022/12/21 01:16:28;;;;;;;90.10;39.63;;;-4.70;99.90;;;;;;4111854;28;20615;-71
2022/12/21 01:18:29;;;;;;;88.15;38.95;;;-4.70;99.90;;;;;;4113192;28;20030;-71
2022/12/21 01:20:30;;;;;;;88.35;40.03;;;-4.70;99.90;;;;;;4111841;28;20542;-65
2022/12/21 01:22:32;;;;;;;87.37;38.77;;;-4.70;99.90;;;;;;4111796;28;20035;-64
2022/12/21 01:24:33;;;;;;;84.72;38.15;;;-4.80;99.90;;;;;;4111992;28;20296;-65
2022/12/21 01:26:34;;;;;;;96.30;40.40;;;-4.70;99.90;;;;;;4112148;28;20043;-63
2022/12/21 01:28:35;;;;;;;97.65;42.22;;;-4.70;99.90;;;;;;4111796;28;20038;-61
2022/12/21 01:30:38;;;;;;;94.78;41.88;;;-4.70;99.90;;;;;;4112481;28;20039;-62
2022/12/21 01:32:39;;;;;;;84.47;38.88;;;-4.70;99.90;;;;;;4111886;28;20027;-59
2022/12/21 01:34:40;;;;;;;97.50;41.80;;;-4.70;99.90;;;;;;4111690;28;20039;-66
2022/12/21 01:36:41;;;;;;;95.18;40.95;;;-4.70;99.90;;;;;;4112354;28;20023;-63
2022/12/21 01:38:45;;;;;;;97.07;39.17;;;-4.70;99.90;;;;;;4094143;29;20046;-67
2022/12/21 01:40:46;;;;;;;90.10;42.03;;;-4.70;99.90;;;;;;4112832;28;20042;-62
2022/12/21 01:42:47;;;;;;;89.28;39.20;;;-4.70;99.90;;;;;;4111813;28;20097;-66
2022/12/21 01:45:18;;;;;;;84.65;37.97;;;-4.70;99.90;;;;;;4113240;28;20031;-65
2022/12/21 01:47:37;;;;;;;89.38;38.65;;;-4.60;99.90;;;;;;4111703;28;20023;-61
2022/12/21 01:49:38;;;;;;;97.45;41.92;;;-4.60;99.90;;;;;;4112476;28;20105;-61
2022/12/21 01:51:42;;;;;;;85.73;40.50;;;-4.50;99.90;;;;;;4111767;28;20081;-62
2022/12/21 01:53:53;;;;;;;93.47;40.57;;;-4.50;99.90;;;;;;4112378;28;20285;-61
2022/12/21 01:55:57;;;;;;;114.65;47.53;;;-4.50;99.90;;;;;;4093979;29;20300;-64
2022/12/21 01:58:01;;;;;;;110.33;47.60;;;-4.50;99.90;;;;;;4111734;28;20047;-63
2022/12/21 02:00:04;;;;;;;128.50;50.53;;;-4.50;99.90;;;;;;4111539;28;20292;-62
2022/12/21 02:02:18;;;;;;;126.25;51.83;;;-4.60;99.90;;;;;;4112289;28;20078;-66
2022/12/21 02:04:19;;;;;;;137.53;56.17;;;-4.60;99.90;;;;;;4110840;28;20042;-66
2022/12/21 02:06:27;;;;;;;145.37;57.87;;;-4.60;99.90;;;;;;4112208;28;21256;-61
2022/12/21 02:08:28;;;;;;;144.57;61.30;;;-4.60;99.90;;;;;;4111646;28;20343;-62
2022/12/21 02:10:30;;;;;;;136.57;58.25;;;-4.60;99.90;;;;;;4111327;28;20093;-64
2022/12/21 02:12:31;;;;;;;134.90;57.63;;;-4.60;99.90;;;;;;4111635;28;20398;-61
2022/12/21 02:14:37;;;;;;;131.35;56.78;;;-4.50;99.90;;;;;;4112673;28;20364;-64
2022/12/21 02:17:08;;;;;;;135.10;55.30;;;-4.50;99.90;;;;;;4111120;28;20043;-60
2022/12/21 02:19:18;;;;;;;137.23;58.50;;;-4.40;99.90;;;;;;4112159;28;20085;-61
2022/12/21 02:21:28;;;;;;;136.63;57.73;;;-4.40;99.90;;;;;;4110659;28;20348;-62
2022/12/21 02:24:04;;;;;;;128.73;55.23;;;-4.40;99.90;;;;;;4112552;28;20343;-67
2022/12/21 02:26:22;;;;;;;141.30;55.23;;;-4.40;99.90;;;;;;4081485;28;20276;-61
2022/12/21 02:28:45;;;;;;;135.53;53.70;;;-4.30;99.90;;;;;;4096171;29;20305;-67
2022/12/21 02:31:04;;;;;;;123.37;52.83;;;-4.30;99.90;;;;;;4095835;29;20825;-63
2022/12/21 02:33:11;;;;;;;120.37;49.63;;;-4.30;99.90;;;;;;4097138;28;20281;-66
2022/12/21 02:35:30;;;;;;;120.50;47.27;;;-4.30;99.90;;;;;;4098857;29;20627;-73
2022/12/21 02:37:41;;;;;;;104.33;43.63;;;-4.40;99.90;;;;;;4098821;29;20269;-68
2022/12/21 02:39:54;;;;;;;104.70;41.80;;;-4.40;99.90;;;;;;4098182;29;20757;-70
2022/12/21 02:44:54;;;;;;;110.80;45.38;;;-4.50;99.90;;;;;;4115559;28;20360;-70
2022/12/21 02:46:58;;;;;;;107.53;44.28;;;-4.50;99.90;;;;;;4114463;28;20105;-68
2022/12/21 02:49:41;;;;;;;127.27;49.40;;;-4.60;99.90;;;;;;4115024;28;20430;-73
2022/12/21 02:51:59;;;;;;;115.63;44.73;;;-4.60;99.90;;;;;;4113726;28;20313;-73
2022/12/21 02:54:01;;;;;;;110.63;44.92;;;-4.60;99.90;;;;;;4115208;28;20269;-73
2022/12/21 02:56:03;;;;;;;107.93;42.07;;;-4.60;99.90;;;;;;4096647;29;20401;-68
2022/12/21 02:58:24;;;;;;;107.00;42.95;;;-4.60;99.90;;;;;;4115178;28;20644;-73
2022/12/21 03:00:25;;;;;;;108.20;43.92;;;-4.60;99.90;;;;;;4113280;28;20071;-73
2022/12/21 03:03:47;;;;;;;117.85;48.92;;;-4.70;99.90;;;;;;4115072;28;20043;-73
2022/12/21 03:05:23;;;;;;;115.05;45.40;;;-4.70;99.90;;;;;;4113750;28;20097;-65
2022/12/21 03:07:43;;;;;;;125.25;50.28;;;-4.70;99.90;;;;;;4114535;28;20105;-73
2022/12/21 03:10:08;;;;;;;121.22;48.85;;;-4.70;99.90;;;;;;4113908;28;20039;-66
2022/12/21 03:12:34;;;;;;;144.30;51.73;;;-4.60;99.90;;;;;;4096669;29;20039;-73
2022/12/21 03:14:35;;;;;;;119.05;48.53;;;-4.60;99.90;;;;;;4114314;28;20335;-71
2022/12/21 03:16:53;;;;;;;102.28;42.05;;;-4.50;99.90;;;;;;4114092;28;20094;-69
2022/12/21 03:19:01;;;;;;;100.53;42.93;;;-4.60;99.90;;;;;;4096922;29;20043;-71
2022/12/21 03:21:07;;;;;;;90.70;39.95;;;-4.70;99.90;;;;;;4113513;28;20784;-68
2022/12/21 03:23:17;;;;;;;90.38;40.17;;;-4.90;99.90;;;;;;4114361;28;20427;-71
2022/12/21 03:25:23;;;;;;;102.40;40.10;;;-5.00;99.90;;;;;;4112831;28;20070;-71
2022/12/21 03:27:34;;;;;;;88.72;37.60;;;-5.00;99.90;;;;;;4110757;28;20491;-72
2022/12/21 03:29:40;;;;;;;89.13;38.85;;;-5.10;99.90;;;;;;4113734;28;20077;-63
2022/12/21 03:31:46;;;;;;;112.60;42.95;;;-5.10;99.90;;;;;;4114135;28;20031;-65
2022/12/21 03:33:58;;;;;;;100.30;43.25;;;-5.10;99.90;;;;;;4113859;28;20031;-70
2022/12/21 03:36:09;;;;;;;104.60;41.00;;;-5.10;99.90;;;;;;4113952;28;20023;-72
2022/12/21 03:38:21;;;;;;;105.03;45.25;;;-5.10;99.90;;;;;;4113693;28;20077;-71
2022/12/21 03:40:25;;;;;;;110.38;47.55;;;-5.20;99.90;;;;;;4114038;28;20093;-69
2022/12/21 03:42:32;;;;;;;111.50;47.50;;;-5.10;99.90;;;;;;4113761;28;20431;-61
2022/12/21 03:44:42;;;;;;;111.55;49.40;;;-5.10;99.90;;;;;;4112846;28;20484;-61
2022/12/21 03:46:50;;;;;;;124.35;50.42;;;-5.10;99.90;;;;;;4114053;28;20031;-67
2022/12/21 03:48:57;;;;;;;116.95;49.22;;;-5.10;99.90;;;;;;4113052;28;20484;-64
2022/12/21 03:51:05;;;;;;;142.50;50.90;;;-5.00;99.90;;;;;;4112537;28;20039;-64
2022/12/21 03:53:24;;;;;;;120.30;46.22;;;-5.00;99.90;;;;;;4112829;28;20085;-66
2022/12/21 03:55:30;;;;;;;105.50;46.75;;;-5.00;99.90;;;;;;4112690;28;20102;-66
2022/12/21 03:57:32;;;;;;;118.13;46.15;;;-5.00;99.90;;;;;;4113596;28;20061;-62
2022/12/21 03:59:35;;;;;;;114.70;48.63;;;-5.00;99.90;;;;;;4113567;28;20086;-61
2022/12/21 04:02:01;;;;;;;115.15;48.78;;;-5.00;99.90;;;;;;4113414;28;20035;-65
2022/12/21 04:04:28;;;;;;;114.28;49.83;;;-5.00;99.90;;;;;;4113075;28;20093;-61
2022/12/21 04:06:33;;;;;;;105.28;45.50;;;-4.90;99.90;;;;;;4113101;28;20121;-65
2022/12/21 04:08:36;;;;;;;105.97;45.70;;;-4.90;99.90;;;;;;4113064;28;20038;-63
2022/12/21 04:10:37;;;;;;;96.90;41.17;;;-4.90;99.90;;;;;;4113612;28;20090;-64
2022/12/21 04:12:39;;;;;;;104.60;44.67;;;-5.00;99.90;;;;;;4113424;28;20077;-71
2022/12/21 04:14:41;;;;;;;116.57;45.30;;;-5.00;99.90;;;;;;4112920;28;20018;-68
2022/12/21 04:16:42;;;;;;;108.50;45.78;;;-4.90;99.90;;;;;;4113541;28;20049;-67
2022/12/21 04:21:03;;;;;;;111.65;47.63;;;-4.90;99.90;;;;;;4113165;28;20093;-70
2022/12/21 04:30:06;;;;;;;117.38;46.78;;;-4.90;99.90;;;;;;4112408;28;20101;-71
2022/12/21 04:32:07;;;;;;;113.65;50.08;;;-4.90;99.90;;;;;;4113108;28;20023;-72
2022/12/21 04:34:09;;;;;;;109.40;47.72;;;-4.80;99.90;;;;;;4112854;28;20102;-72
2022/12/21 04:38:32;;;;;;;119.57;45.38;;;-4.80;99.90;;;;;;4113316;28;20089;-70
2022/12/21 04:40:33;;;;;;;117.00;46.30;;;-4.80;99.90;;;;;;4112488;28;20043;-71
2022/12/21 04:42:34;;;;;;;112.85;48.72;;;-4.70;99.90;;;;;;4112717;28;20038;-71
2022/12/21 04:44:35;;;;;;;114.03;48.35;;;-4.70;99.90;;;;;;4111626;28;20105;-68
2022/12/21 04:46:37;;;;;;;110.68;47.50;;;-4.70;99.90;;;;;;4113614;28;20086;-72
2022/12/21 04:48:38;;;;;;;110.38;47.55;;;-4.80;99.90;;;;;;4112250;28;20039;-73
2022/12/21 04:50:39;;;;;;;115.03;47.53;;;-4.70;99.90;;;;;;4112911;28;20463;-70
2022/12/21 04:52:40;;;;;;;112.03;48.20;;;-4.70;99.90;;;;;;4111905;28;20097;-68
2022/12/21 04:54:42;;;;;;;112.53;47.92;;;-4.70;99.90;;;;;;4113295;28;20360;-69
2022/12/21 04:56:43;;;;;;;110.83;46.97;;;-4.60;99.90;;;;;;4110664;28;20035;-69
2022/12/21 04:58:44;;;;;;;107.90;45.95;;;-4.70;99.90;;;;;;4113209;28;20382;-71
2022/12/21 05:00:46;;;;;;;113.45;49.08;;;-4.70;99.90;;;;;;4111322;28;20117;-63
2022/12/21 05:02:47;;;;;;;118.80;50.00;;;-4.70;99.90;;;;;;4112186;28;20026;-63
2022/12/21 05:04:48;;;;;;;114.93;49.83;;;-4.70;99.90;;;;;;4112194;28;20277;-70
2022/12/21 05:06:49;;;;;;;107.90;46.23;;;-4.70;99.90;;;;;;4112381;28;20046;-65
2022/12/21 05:08:50;;;;;;;113.70;47.67;;;-4.70;99.90;;;;;;4111878;28;20277;-62
2022/12/21 05:10:51;;;;;;;114.32;49.38;;;-4.70;99.90;;;;;;4111870;28;20454;-61
2022/12/21 05:12:52;;;;;;;106.55;46.38;;;-4.70;99.90;;;;;;4112237;28;20047;-69
2022/12/21 05:14:53;;;;;;;114.03;47.05;;;-4.70;99.90;;;;;;4110581;28;20101;-71
2022/12/21 05:16:54;;;;;;;113.60;47.03;;;-4.70;99.90;;;;;;4112051;28;20117;-64
2022/12/21 05:18:56;;;;;;;127.87;49.50;;;-4.60;99.90;;;;;;4111583;28;21058;-74
2022/12/21 05:20:58;;;;;;;121.22;49.40;;;-4.50;99.90;;;;;;4112208;28;20367;-71
2022/12/21 05:22:59;;;;;;;127.72;52.35;;;-4.50;99.90;;;;;;4111196;28;20109;-62
2022/12/21 05:25:00;;;;;;;122.87;49.67;;;-4.40;99.90;;;;;;4112851;28;20019;-61
2022/12/21 05:27:01;;;;;;;126.47;52.20;;;-4.40;99.90;;;;;;4111218;28;20745;-69
2022/12/21 05:29:03;;;;;;;143.73;51.80;;;-4.40;99.90;;;;;;4106811;28;20031;-66
2022/12/21 05:31:05;;;;;;;124.10;50.33;;;-4.40;99.90;;;;;;4106693;28;20339;-59
2022/12/21 05:33:06;;;;;;;126.97;49.40;;;-4.30;99.90;;;;;;4112483;28;20304;-59
2022/12/21 05:35:07;;;;;;;121.13;49.63;;;-4.30;99.90;;;;;;4111014;28;20249;-59
2022/12/21 05:37:09;;;;;;;125.37;51.97;;;-4.30;99.90;;;;;;4112156;28;21326;-60
2022/12/21 05:39:10;;;;;;;134.07;55.70;;;-4.20;99.90;;;;;;4111523;28;20264;-61
2022/12/21 05:41:12;;;;;;;137.60;53.37;;;-4.20;99.90;;;;;;4111421;28;20308;-60
2022/12/21 05:43:14;;;;;;;128.93;50.47;;;-4.20;99.90;;;;;;4111986;28;20623;-70
2022/12/21 05:45:15;;;;;;;116.40;51.27;;;-4.20;99.90;;;;;;4111137;28;20269;-75
2022/12/21 05:47:16;;;;;;;119.00;50.77;;;-4.20;99.90;;;;;;4112874;28;20272;-75
2022/12/21 05:49:17;;;;;;;136.67;53.67;;;-4.10;99.90;;;;;;4111406;28;20280;-67
2022/12/21 05:51:18;;;;;;;115.20;47.67;;;-4.20;99.90;;;;;;4110408;28;20289;-69
2022/12/21 05:53:20;;;;;;;118.23;47.80;;;-4.20;99.90;;;;;;4109823;28;20777;-71
2022/12/21 05:55:21;;;;;;;117.37;49.77;;;-4.20;99.90;;;;;;4112398;28;20272;-62
2022/12/21 05:57:22;;;;;;;108.60;46.47;;;-4.30;99.90;;;;;;4111121;28;20737;-69
2022/12/21 05:59:23;;;;;;;106.17;44.77;;;-4.20;99.90;;;;;;4112378;28;20273;-72
2022/12/21 06:01:24;;;;;;;113.27;46.27;;;-4.20;99.90;;;;;;4110699;28;20362;-63
2022/12/21 06:03:25;;;;;;;99.90;45.17;;;-4.30;99.90;;;;;;4111495;28;20630;-68
2022/12/21 06:05:27;;;;;;;115.10;49.00;;;-4.40;99.90;;;;;;4110569;28;20273;-71
2022/12/21 06:07:28;;;;;;;104.23;46.73;;;-4.40;99.90;;;;;;4111640;28;20285;-64
2022/12/21 06:09:29;;;;;;;113.93;48.60;;;-4.40;99.90;;;;;;4114574;28;20312;-69
2022/12/21 06:11:32;;;;;;;110.57;45.97;;;-4.50;99.90;;;;;;4113369;28;20902;-69
2022/12/21 06:13:34;;;;;;;109.33;47.73;;;-4.50;99.90;;;;;;4115160;28;20137;-74
2022/12/21 06:15:35;;;;;;;112.00;48.10;;;-4.50;99.90;;;;;;4114574;28;20610;-73
2022/12/21 06:17:36;;;;;;;110.60;47.57;;;-4.50;99.90;;;;;;4114493;28;20284;-68
2022/12/21 06:19:37;;;;;;;108.80;47.40;;;-4.40;99.90;;;;;;4113116;28;21147;-63
2022/12/21 06:21:38;;;;;;;109.47;47.17;;;-4.40;99.90;;;;;;4115197;28;20296;-75
2022/12/21 06:23:41;;;;;;;119.90;48.63;;;-4.40;99.90;;;;;;4113442;28;20276;-76
2022/12/21 06:25:42;;;;;;;110.37;47.40;;;-4.30;99.90;;;;;;4115353;28;20269;-62
2022/12/21 06:27:43;;;;;;;108.47;47.03;;;-4.20;99.90;;;;;;4114159;28;20315;-76
2022/12/21 06:29:44;;;;;;;105.93;45.33;;;-4.30;99.90;;;;;;4115156;28;20285;-77
2022/12/21 06:31:45;;;;;;;106.27;43.97;;;-4.30;99.90;;;;;;4114135;28;20323;-74
2022/12/21 06:33:47;;;;;;;102.90;45.78;;;-4.40;99.90;;;;;;4115436;28;20348;-74
2022/12/21 06:35:54;;;;;;;107.80;46.00;;;-4.40;99.90;;;;;;4112359;28;20047;-73
2022/12/21 06:37:55;;;;;;;121.45;52.65;;;-4.40;99.90;;;;;;4114770;28;20292;-77
2022/12/21 06:39:57;;;;;;;134.87;59.20;;;-4.30;99.90;;;;;;4114061;28;20035;-70
2022/12/21 06:41:58;;;;;;;129.43;54.40;;;-4.20;99.90;;;;;;4114443;28;20313;-73
2022/12/21 06:43:59;;;;;;;128.63;53.10;;;-4.10;99.90;;;;;;4096121;29;20346;-74
2022/12/21 06:46:03;;;;;;;97.87;45.23;;;-3.90;99.90;;;;;;4114512;28;20621;-76
2022/12/21 06:48:04;;;;;;;101.57;43.80;;;-3.80;99.90;;;;;;4114346;28;20276;-72
2022/12/21 06:50:06;;;;;;;102.13;41.33;;;-3.80;99.90;;;;;;4096171;29;20825;-76
2022/12/21 06:52:08;;;;;;;100.13;44.30;;;-3.80;99.90;;;;;;4114836;28;20327;-76
2022/12/21 06:54:10;;;;;;;105.00;45.70;;;-3.90;99.90;;;;;;4113631;28;20323;-75
2022/12/21 06:56:20;;;;;;;111.43;45.83;;;-3.90;99.90;;;;;;4096663;29;20312;-72
2022/12/21 06:58:21;;;;;;;107.97;47.75;;;-3.80;99.90;;;;;;4113597;28;20666;-71
2022/12/21 07:00:22;;;;;;;114.90;49.17;;;-3.90;99.90;;;;;;4114696;28;20027;-78
2022/12/21 07:02:25;;;;;;;104.83;45.60;;;-3.80;99.90;;;;;;4113512;28;20284;-76
2022/12/21 07:04:27;;;;;;;101.13;45.30;;;-3.80;99.90;;;;;;4114618;28;20881;-69
2022/12/21 07:06:30;;;;;;;125.70;49.03;;;-3.80;99.90;;;;;;4112188;28;20320;-70
2022/12/21 07:08:31;;;;;;;110.17;46.70;;;-3.90;99.90;;;;;;4114695;28;20327;-70
2022/12/21 07:10:33;;;;;;;120.87;49.47;;;-3.90;99.90;;;;;;4112533;28;20272;-73
2022/12/21 07:12:34;;;;;;;117.27;48.50;;;-3.90;99.90;;;;;;4113418;28;20272;-75
2022/12/21 07:14:35;;;;;;;126.20;52.20;;;-3.80;99.90;;;;;;4113392;28;20273;-71
2022/12/21 07:16:36;;;;;;;128.30;53.40;;;-3.70;99.90;;;;;;4114359;28;20363;-60
2022/12/21 07:18:37;;;;;;;120.10;51.80;;;-3.50;99.90;;;;;;4095618;28;20293;-66
2022/12/21 07:20:38;;;;;;;122.23;53.27;;;-3.30;99.90;;;;;;4112599;28;20343;-73
2022/12/21 07:22:40;;;;;;;112.23;51.77;;;-3.00;99.90;;;;;;4113098;28;20285;-73
2022/12/21 07:24:41;;;;;;;112.47;52.23;;;-2.90;99.90;;;;;;4113401;28;20269;-59
2022/12/21 07:26:42;;;;;;;124.90;51.73;;;-2.90;99.90;;;;;;4113110;28;20316;-75
2022/12/21 07:28:43;;;;;;;113.37;50.37;;;-2.90;99.90;;;;;;4112973;28;20261;-70
2022/12/21 07:30:48;;;;;;;104.07;47.77;;;-3.00;99.90;;;;;;4114273;28;20324;-76
2022/12/21 07:32:52;;;;;;;116.40;51.17;;;-3.00;99.90;;;;;;4112569;28;20329;-71
2022/12/21 07:34:53;;;;;;;110.97;48.43;;;-3.10;99.90;;;;;;4114082;28;20280;-71
2022/12/21 07:36:54;;;;;;;111.60;49.90;;;-3.20;99.90;;;;;;4111870;28;20336;-75
2022/12/21 07:38:56;;;;;;;127.23;53.77;;;-3.20;99.90;;;;;;4114028;28;20269;-71
2022/12/21 07:41:01;;;;;;;124.63;51.40;;;-3.20;99.90;;;;;;4111840;28;20292;-75
2022/12/21 07:43:09;;;;;;;137.83;55.07;;;-3.30;99.90;;;;;;4095636;29;20407;-76
2022/12/21 07:45:11;;;;;;;118.07;53.73;;;-3.20;99.90;;;;;;4112853;28;20345;-76
2022/12/21 07:47:12;;;;;;;130.57;58.00;;;-2.80;99.90;;;;;;4114186;28;20350;-61
2022/12/21 07:49:13;;;;;;;136.10;56.60;;;-2.50;99.90;;;;;;4112464;28;21106;-70
2022/12/21 07:51:14;;;;;;;124.27;57.33;;;-2.10;99.90;;;;;;4113438;28;20265;-72
2022/12/21 07:53:16;;;;;;;138.47;57.57;;;-1.70;99.90;;;;;;4112906;28;20738;-61
2022/12/21 07:55:17;;;;;;;132.97;58.13;;;-1.60;99.90;;;;;;4112389;28;20327;-67
2022/12/21 07:57:19;;;;;;;120.00;53.63;;;-1.50;99.90;;;;;;4112523;28;20261;-75
2022/12/21 07:59:20;;;;;;;133.90;57.43;;;-1.50;99.90;;;;;;4112728;28;20269;-70
2022/12/21 08:03:32;;;;;;;;;;;-1.80;99.90;;;;;;4239278;23;20862;-72
2022/12/21 08:05:33;;;;;;;136.97;59.00;;;-1.90;99.90;;;;;;4112710;28;19914;-60
2022/12/21 08:07:34;;;;;;;138.53;62.53;;;-1.90;99.90;;;;;;4113479;28;20285;-75
2022/12/21 08:09:35;;;;;;;134.67;58.10;;;-1.90;99.90;;;;;;4112596;28;20335;-77
2022/12/21 08:11:37;;;;;;;142.33;60.13;;;-1.90;99.90;;;;;;4113403;28;20332;-74
2022/12/21 08:13:39;;;;;;;129.67;58.60;;;-1.80;99.90;;;;;;4112667;28;20637;-77
2022/12/21 08:15:40;;;;;;;131.83;62.67;;;-1.70;99.90;;;;;;4113588;28;20598;-77
2022/12/21 08:17:41;;;;;;;135.80;65.03;;;-1.40;99.90;;;;;;4112406;28;20264;-76
2022/12/21 08:19:42;;;;;;;140.60;65.10;;;-1.20;99.90;;;;;;4113003;28;20284;-78
2022/12/21 08:21:44;;;;;;;141.00;65.30;;;-0.90;99.90;;;;;;4112570;28;20713;-69
2022/12/21 08:23:47;;;;;;;144.10;62.60;;;-0.70;99.90;;;;;;4112176;28;20272;-77
2022/12/21 08:25:48;;;;;;;135.33;64.70;;;-0.60;99.90;;;;;;4112134;28;20653;-62
2022/12/21 08:27:49;;;;;;;135.83;62.17;;;-0.60;99.90;;;;;;4112125;28;20348;-76
2022/12/21 08:29:51;;;;;;;142.70;64.77;;;-0.70;99.90;;;;;;4096006;28;20926;-74
2022/12/21 08:31:52;;;;;;;159.23;68.90;;;-0.70;99.90;;;;;;4111714;28;20273;-77
2022/12/21 08:33:53;;;;;;;131.27;63.90;;;-0.70;99.90;;;;;;4112928;28;20284;-76
2022/12/21 08:35:54;;;;;;;160.60;71.40;;;-0.70;99.90;;;;;;4111865;28;20828;-77
2022/12/21 08:37:55;;;;;;;142.83;65.87;;;-0.70;99.90;;;;;;4113116;28;20281;-66
2022/12/21 08:39:56;;;;;;;164.43;67.77;;;-0.70;99.90;;;;;;4111231;28;20288;-70
2022/12/21 08:41:57;;;;;;;136.20;64.50;;;-0.50;99.90;;;;;;4112686;28;20367;-77
2022/12/21 08:43:59;;;;;;;146.03;65.40;;;-0.30;99.90;;;;;;4111942;28;20752;-72
2022/12/21 08:46:03;;;;;;;151.47;67.13;;;-0.10;99.90;;;;;;4113010;28;20319;-69
2022/12/21 08:48:04;;;;;;;145.97;65.30;;;-0.10;99.90;;;;;;4110658;28;20272;-70
2022/12/21 08:50:06;;;;;;;147.87;64.87;;;-0.20;99.90;;;;;;4111748;28;20269;-73
2022/12/21 08:52:07;;;;;;;150.73;66.30;;;-0.10;99.90;;;;;;4112309;28;20328;-75
2022/12/21 08:54:08;;;;;;;163.43;70.20;;;0.10;99.90;;;;;;4112399;28;20831;-77
2022/12/21 08:56:09;;;;;;;146.80;69.57;;;0.40;99.90;;;;;;4111716;28;20339;-75
2022/12/21 08:58:11;;;;;;;144.87;69.17;;;0.60;99.90;;;;;;4111340;28;20280;-77
2022/12/21 09:00:12;;;;;;;157.73;70.43;;;0.80;99.90;;;;;;4112818;28;20257;-72
2022/12/21 09:02:13;;;;;;;135.73;67.53;;;0.80;99.90;;;;;;4111607;28;20355;-74
2022/12/21 09:04:15;;;;;;;141.57;66.93;;;1.00;99.90;;;;;;4112506;28;20281;-71
2022/12/21 09:06:16;;;;;;;144.37;69.40;;;1.10;99.90;;;;;;4111502;28;20323;-71
2022/12/21 09:08:17;;;;;;;145.27;68.07;;;1.10;99.90;;;;;;4112569;28;20347;-76
2022/12/21 09:10:18;;;;;;;134.67;64.17;;;0.90;99.90;;;;;;4111432;28;20288;-60
2022/12/21 09:12:19;;;;;;;145.80;67.53;;;0.90;99.90;;;;;;4112415;28;20324;-60
2022/12/21 09:14:21;;;;;;;142.20;66.47;;;0.70;99.90;;;;;;4111317;28;20619;-60
2022/12/21 09:16:23;;;;;;;138.17;62.40;;;0.50;99.90;;;;;;4111894;28;20629;-61
2022/12/21 09:18:25;;;;;;;141.23;64.50;;;0.40;99.90;;;;;;4110417;28;20311;-63
2022/12/21 09:20:26;;;;;;;127.63;63.13;;;0.20;99.90;;;;;;4112402;28;20378;-62
2022/12/21 09:22:27;;;;;;;133.07;61.67;;;0.00;99.90;;;;;;4111449;28;20292;-61
2022/12/21 09:24:28;;;;;;;138.03;62.07;;;-0.20;99.90;;;;;;4112177;28;20268;-67
2022/12/21 09:26:29;;;;;;;139.47;63.83;;;-0.30;99.90;;;;;;4111303;28;20292;-64
2022/12/21 09:28:31;;;;;;;143.30;59.13;;;-0.40;99.90;;;;;;4111780;28;20661;-65
2022/12/21 09:30:32;;;;;;;133.70;59.53;;;-0.40;99.90;;;;;;4111447;28;20285;-70
2022/12/21 09:32:34;;;;;;;147.93;64.57;;;-0.20;99.90;;;;;;4111193;28;20698;-68
2022/12/21 09:34:35;;;;;;;145.87;63.40;;;-0.20;99.90;;;;;;4112135;28;20323;-68
2022/12/21 09:36:36;;;;;;;163.13;66.40;;;-0.30;99.90;;;;;;4111252;28;20272;-72
2022/12/21 09:38:37;;;;;;;161.97;59.50;;;-0.40;99.90;;;;;;4111819;28;20855;-62
2022/12/21 09:40:39;;;;;;;133.80;58.40;;;-0.50;99.90;;;;;;4111109;28;20752;-64
2022/12/21 09:43:03;;;;;;;140.70;55.57;;;-0.60;99.90;;;;;;4112492;28;20348;-68
2022/12/21 09:45:23;;;;;;;136.70;54.67;;;-0.60;99.90;;;;;;4113844;28;20280;-61
2022/12/21 09:47:33;;;;;;;131.85;52.83;;;-0.60;99.90;;;;;;4115789;28;20272;-61
2022/12/21 09:49:58;;;;;;;120.93;52.00;;;-0.60;99.90;;;;;;4114337;28;20500;-62
2022/12/21 09:52:02;;;;;;;110.40;45.13;;;-0.60;99.90;;;;;;4115693;28;20034;-62
2022/12/21 09:54:15;;;;;;;119.97;47.67;;;-0.80;99.90;;;;;;4114520;28;20280;-65
2022/12/21 09:56:21;;;;;;;108.00;45.17;;;-0.80;99.90;;;;;;4114430;28;20296;-68
2022/12/21 09:58:39;;;;;;;95.53;41.90;;;-0.80;99.90;;;;;;4114329;28;20316;-62
2022/12/21 10:00:44;;;;;;;93.00;40.90;;;-0.80;99.90;;;;;;4097198;29;20645;-69
2022/12/21 10:03:00;;;;;;;99.07;43.17;;;-0.90;99.90;;;;;;4112634;28;20300;-76
2022/12/21 10:05:19;;;;;;;91.27;40.80;;;-0.80;99.90;;;;;;4115208;28;20277;-76
2022/12/21 10:07:56;;;;;;;106.70;42.30;;;-0.70;99.90;;;;;;4114169;28;20331;-66
2022/12/21 10:10:18;;;;;;;109.00;42.57;;;-0.40;99.90;;;;;;4113849;28;20296;-71
2022/12/21 10:12:44;;;;;;;94.97;38.50;;;-0.20;99.90;;;;;;4114951;28;20269;-71
2022/12/21 10:15:23;;;;;;;88.47;39.93;;;0.00;99.90;;;;;;4114013;28;20085;-69
2022/12/21 10:17:24;;;;;;;88.80;37.67;;;0.10;99.90;;;;;;4085216;28;20739;-67
2022/12/21 10:19:35;;;;;;;94.20;41.50;;;0.10;99.90;;;;;;4113808;28;20741;-61
2022/12/21 10:21:58;;;;;;;92.63;39.72;;;0.20;99.90;;;;;;4115031;28;20288;-75
2022/12/21 10:24:02;;;;;;;98.40;47.77;;;0.20;99.90;;;;;;4114102;28;20328;-67
2022/12/21 10:26:06;;;;;;;89.73;43.13;;;0.20;99.90;;;;;;4114987;28;20269;-70
2022/12/21 10:28:18;;;;;;;89.67;42.47;;;0.10;99.90;;;;;;4113838;28;20272;-75
2022/12/21 10:30:20;;;;;;;89.03;41.13;;;0.20;99.90;;;;;;4114789;28;20269;-68
2022/12/21 10:32:24;;;;;;;79.47;40.13;;;0.30;99.90;;;;;;4113156;28;20268;-69
2022/12/21 10:34:35;;;;;;;81.77;40.13;;;0.30;99.90;;;;;;4113661;28;20347;-70
2022/12/21 10:36:37;;;;;;;80.87;38.90;;;0.20;99.90;;;;;;4113708;28;20260;-67
2022/12/21 10:38:38;;;;;;;81.93;39.20;;;0.30;99.90;;;;;;4115036;28;20276;-61
2022/12/21 10:40:41;;;;;;;77.13;34.97;;;0.30;99.90;;;;;;4113891;28;20296;-64
2022/12/21 10:42:45;;;;;;;75.97;38.00;;;0.30;99.90;;;;;;4113388;28;20292;-74
2022/12/21 10:44:48;;;;;;;72.00;35.23;;;0.30;99.90;;;;;;4113833;28;20331;-68